createdAt,value
2022-11-05T00:01:15.927Z,11.97
2022-11-05T00:04:03.245Z,12.01
2022-11-05T00:06:50.526Z,12.00
2022-11-05T00:09:32.852Z,11.97
2022-11-05T00:12:32.237Z,11.97
2022-11-05T00:15:19.241Z,11.95
2022-11-05T00:17:47.776Z,11.93
2022-11-05T00:20:16.419Z,11.92
2022-11-05T00:23:03.261Z,11.90
2022-11-05T00:25:31.711Z,11.87
2022-11-05T00:28:02.924Z,11.84
2022-11-05T00:30:31.446Z,11.83
2022-11-05T00:33:05.001Z,11.78
2022-11-05T00:35:33.352Z,11.82
2022-11-05T00:38:01.980Z,11.80
2022-11-05T00:40:30.771Z,11.79
2022-11-05T00:43:17.671Z,11.78
2022-11-05T00:45:46.180Z,11.79
2022-11-05T00:48:33.096Z,11.78
2022-11-05T00:51:01.534Z,11.77
2022-11-05T00:53:30.017Z,11.76
2022-11-05T00:55:58.823Z,11.77
2022-11-05T00:58:29.940Z,11.78
2022-11-05T01:01:00.449Z,11.79
2022-11-05T01:03:33.195Z,11.81
2022-11-05T01:06:17.012Z,11.83
2022-11-05T01:08:46.691Z,11.86
2022-11-05T01:11:37.416Z,11.86
2022-11-05T01:14:10.989Z,11.84
2022-11-05T01:16:40.449Z,11.83
2022-11-05T01:19:10.859Z,11.81
2022-11-05T01:21:39.339Z,11.80
2022-11-05T01:24:08.496Z,11.81
2022-11-05T01:26:36.914Z,11.80
2022-11-05T01:29:05.326Z,11.84
2022-11-05T01:31:33.797Z,11.86
2022-11-05T01:34:02.301Z,11.87
2022-11-05T01:36:30.756Z,11.88
2022-11-05T01:38:59.440Z,11.88
2022-11-05T01:41:28.023Z,11.85
2022-11-05T01:43:59.842Z,11.86
2022-11-05T01:46:44.419Z,11.87
2022-11-05T01:49:17.528Z,11.83
2022-11-05T01:51:46.705Z,11.85
2022-11-05T01:54:23.788Z,11.87
2022-11-05T01:57:02.715Z,11.88
2022-11-05T01:59:46.269Z,11.88
2022-11-05T02:02:14.950Z,11.91
2022-11-05T02:04:54.173Z,11.93
2022-11-05T02:07:25.024Z,11.94
2022-11-05T02:10:11.228Z,11.96
2022-11-05T02:12:43.896Z,11.98
2022-11-05T02:15:15.952Z,12.00
2022-11-05T02:18:15.556Z,11.99
2022-11-05T02:20:57.448Z,11.98
2022-11-05T02:24:01.477Z,11.97
2022-11-05T02:27:00.581Z,11.96
2022-11-05T02:29:56.276Z,11.96
2022-11-05T02:33:03.780Z,11.96
2022-11-05T02:35:41.273Z,11.96
2022-11-05T02:38:17.031Z,11.95
2022-11-05T02:41:25.772Z,11.95
2022-11-05T02:44:10.013Z,11.92
2022-11-05T02:46:44.433Z,11.90
2022-11-05T02:49:52.648Z,11.87
2022-11-05T02:52:43.119Z,11.88
2022-11-05T02:55:26.825Z,11.87
2022-11-05T02:57:55.647Z,11.89
2022-11-05T03:00:52.911Z,11.93
2022-11-05T03:03:33.287Z,11.95
2022-11-05T03:06:22.860Z,11.97
2022-11-05T03:09:23.184Z,11.99
2022-11-05T03:12:21.711Z,11.96
2022-11-05T03:15:08.665Z,11.99
2022-11-05T03:18:14.440Z,11.97
2022-11-05T03:20:48.961Z,11.97
2022-11-05T03:23:34.276Z,11.97
2022-11-05T03:26:33.847Z,11.97
2022-11-05T03:29:15.826Z,11.97
2022-11-05T03:31:47.892Z,11.97
2022-11-05T03:34:20.169Z,11.98
2022-11-05T03:36:53.870Z,11.98
2022-11-05T03:39:33.195Z,11.98
2022-11-05T03:42:05.372Z,11.97
2022-11-05T03:44:39.804Z,11.95
2022-11-05T03:47:15.544Z,11.96
2022-11-05T03:50:20.580Z,11.98
2022-11-05T03:53:03.588Z,11.98
2022-11-05T03:56:07.005Z,11.99
2022-11-05T03:58:36.588Z,12.02
2022-11-05T04:01:05.557Z,12.02
2022-11-05T04:03:36.654Z,12.03
2022-11-05T04:06:26.660Z,12.02
2022-11-05T04:09:14.049Z,12.03
2022-11-05T04:12:01.059Z,12.04
2022-11-05T04:14:31.080Z,12.06
2022-11-05T04:17:09.840Z,12.06
2022-11-05T04:20:03.188Z,12.07
2022-11-05T04:22:53.058Z,12.03
2022-11-05T04:25:22.638Z,12.03
2022-11-05T04:27:51.556Z,12.04
2022-11-05T04:30:20.922Z,12.02
2022-11-05T04:33:11.594Z,12.03
2022-11-05T04:35:44.230Z,12.04
2022-11-05T04:38:16.391Z,12.06
2022-11-05T04:40:47.077Z,12.09
2022-11-05T04:43:19.361Z,12.09
2022-11-05T04:45:48.200Z,12.10
2022-11-05T04:48:16.578Z,12.10
2022-11-05T04:50:45.060Z,12.10
2022-11-05T04:53:14.667Z,12.10
2022-11-05T04:55:43.270Z,12.10
2022-11-05T04:58:11.834Z,12.07
2022-11-05T05:00:40.409Z,12.13
2022-11-05T05:03:09.310Z,12.15
2022-11-05T05:05:38.098Z,12.16
2022-11-05T05:08:06.672Z,12.16
2022-11-05T05:10:35.375Z,12.17
2022-11-05T05:13:03.934Z,12.18
2022-11-05T05:15:32.510Z,12.17
2022-11-05T05:18:00.953Z,12.16
2022-11-05T05:20:48.027Z,12.15
2022-11-05T05:23:16.598Z,12.17
2022-11-05T05:25:45.172Z,12.18
2022-11-05T05:28:13.675Z,12.19
2022-11-05T05:30:42.126Z,12.21
2022-11-05T05:33:10.974Z,12.22
2022-11-05T05:35:39.628Z,12.24
2022-11-05T05:38:08.107Z,12.24
2022-11-05T05:40:36.588Z,12.26
2022-11-05T05:43:05.068Z,12.25
2022-11-05T05:45:35.751Z,12.28
2022-11-05T05:48:04.485Z,12.29
2022-11-05T05:50:32.896Z,12.32
2022-11-05T05:53:09.734Z,12.36
2022-11-05T05:55:38.467Z,12.39
2022-11-05T05:58:08.706Z,12.43
2022-11-05T06:00:39.064Z,12.45
2022-11-05T06:03:07.594Z,12.48
2022-11-05T06:05:36.334Z,12.48
2022-11-05T06:08:05.421Z,12.48
2022-11-05T06:10:34.600Z,12.50
2022-11-05T06:13:03.445Z,12.52
2022-11-05T06:15:35.706Z,12.55
2022-11-05T06:18:04.595Z,12.58
2022-11-05T06:20:32.984Z,12.58
2022-11-05T06:23:01.348Z,12.63
2022-11-05T06:25:30.017Z,12.68
2022-11-05T06:27:58.674Z,12.73
2022-11-05T06:30:27.297Z,12.76
2022-11-05T06:32:55.877Z,12.77
2022-11-05T06:35:24.229Z,12.79
2022-11-05T06:37:52.669Z,12.82
2022-11-05T06:40:21.031Z,12.85
2022-11-05T06:42:53.156Z,12.87
2022-11-05T06:45:22.187Z,12.84
2022-11-05T06:47:57.279Z,12.91
2022-11-05T06:50:27.683Z,12.92
2022-11-05T06:53:01.074Z,12.95
2022-11-05T06:55:31.335Z,12.96
2022-11-05T06:57:59.900Z,12.97
2022-11-05T07:00:28.606Z,12.97
2022-11-05T07:03:05.295Z,12.91
2022-11-05T07:05:36.830Z,12.96
2022-11-05T07:08:05.750Z,13.02
2022-11-05T07:10:34.376Z,13.06
2022-11-05T07:13:07.710Z,13.10
2022-11-05T07:15:37.905Z,13.15
2022-11-05T07:18:09.590Z,13.19
2022-11-05T07:20:38.131Z,13.22
2022-11-05T07:23:11.942Z,13.21
2022-11-05T07:25:42.692Z,13.25
2022-11-05T07:28:11.535Z,13.27
2022-11-05T07:30:40.220Z,13.30
2022-11-05T07:33:09.900Z,13.34
2022-11-05T07:35:38.674Z,13.35
2022-11-05T07:38:07.326Z,13.37
2022-11-05T07:40:35.854Z,13.41
2022-11-05T07:43:04.383Z,13.44
2022-11-05T07:45:33.021Z,13.46
2022-11-05T07:48:03.762Z,13.48
2022-11-05T07:50:36.755Z,13.56
2022-11-05T07:53:13.312Z,13.63
2022-11-05T07:55:42.858Z,13.64
2022-11-05T07:58:11.545Z,13.65
2022-11-05T08:00:40.344Z,13.68
2022-11-05T08:03:14.410Z,13.70
2022-11-05T08:05:47.204Z,13.73
2022-11-05T08:08:19.288Z,13.74
2022-11-05T08:10:48.052Z,13.78
2022-11-05T08:13:17.030Z,13.82
2022-11-05T08:15:45.890Z,13.87
2022-11-05T08:18:17.220Z,13.91
2022-11-05T08:20:47.275Z,13.95
2022-11-05T08:23:16.209Z,13.92
2022-11-05T08:25:44.912Z,13.99
2022-11-05T08:28:14.160Z,14.02
2022-11-05T08:30:43.023Z,14.06
2022-11-05T08:33:13.708Z,14.10
2022-11-05T08:35:42.507Z,14.10
2022-11-05T08:38:14.971Z,14.17
2022-11-05T08:40:46.100Z,14.19
2022-11-05T08:43:15.007Z,14.21
2022-11-05T08:45:43.762Z,14.24
2022-11-05T08:48:15.786Z,14.28
2022-11-05T08:50:46.720Z,14.32
2022-11-05T08:53:16.147Z,14.33
2022-11-05T08:55:47.827Z,14.40
2022-11-05T08:58:17.508Z,14.42
2022-11-05T09:00:47.782Z,14.43
2022-11-05T09:03:16.870Z,14.44
2022-11-05T09:05:45.537Z,14.44
2022-11-05T09:08:17.766Z,14.43
2022-11-05T09:10:48.193Z,14.42
2022-11-05T09:13:19.713Z,14.45
2022-11-05T09:15:50.155Z,14.48
2022-11-05T09:18:20.296Z,14.50
2022-11-05T09:20:49.022Z,14.44
2022-11-05T09:23:17.924Z,14.44
2022-11-05T09:25:46.958Z,14.41
2022-11-05T09:28:19.188Z,14.34
2022-11-05T09:30:51.025Z,14.39
2022-11-05T09:33:23.681Z,14.41
2022-11-05T09:35:53.746Z,14.44
2022-11-05T09:38:22.355Z,14.43
2022-11-05T09:41:29.538Z,14.45
2022-11-05T09:44:03.731Z,14.49
2022-11-05T09:46:55.277Z,14.49
2022-11-05T09:49:42.972Z,14.47
2022-11-05T09:52:18.992Z,14.44
2022-11-05T09:54:48.912Z,14.42
2022-11-05T09:57:47.184Z,14.39
2022-11-05T10:00:17.533Z,14.37
2022-11-05T10:02:55.854Z,14.38
2022-11-05T10:05:28.767Z,14.38
2022-11-05T10:08:12.892Z,14.40
2022-11-05T10:11:10.685Z,14.40
2022-11-05T10:14:00.343Z,14.39
2022-11-05T10:16:34.039Z,14.42
2022-11-05T10:19:24.688Z,14.42
2022-11-05T10:22:18.663Z,14.41
2022-11-05T10:24:50.672Z,14.42
2022-11-05T10:27:39.095Z,14.41
2022-11-05T10:30:24.907Z,14.35
2022-11-05T10:32:57.862Z,14.41
2022-11-05T10:35:30.995Z,14.43
2022-11-05T10:37:59.738Z,14.47
2022-11-05T10:41:06.599Z,14.48
2022-11-05T10:43:47.835Z,14.50
2022-11-05T10:46:36.382Z,14.52
2022-11-05T10:49:10.671Z,14.53
2022-11-05T10:51:39.657Z,14.52
2022-11-05T10:54:21.415Z,14.55
2022-11-05T10:56:50.661Z,14.60
2022-11-05T10:59:28.319Z,14.66
2022-11-05T11:02:26.097Z,14.72
2022-11-05T11:04:58.105Z,14.81
2022-11-05T11:07:27.291Z,14.90
2022-11-05T11:09:55.813Z,14.99
2022-11-05T11:12:31.032Z,15.07
2022-11-05T11:15:24.591Z,15.11
2022-11-05T11:17:55.537Z,15.12
2022-11-05T11:20:32.759Z,15.16
2022-11-05T11:23:01.189Z,15.16
2022-11-05T11:25:42.284Z,15.15
2022-11-05T11:28:29.747Z,15.16
2022-11-05T11:31:07.136Z,15.17
2022-11-05T11:33:38.074Z,15.18
2022-11-05T11:36:11.866Z,15.12
2022-11-05T11:38:41.516Z,15.17
2022-11-05T11:41:28.156Z,15.17
2022-11-05T11:44:07.160Z,15.17
2022-11-05T11:46:36.183Z,15.14
2022-11-05T11:49:07.325Z,15.16
2022-11-05T11:51:49.817Z,15.19
2022-11-05T11:54:28.843Z,15.22
2022-11-05T11:56:57.673Z,15.22
2022-11-05T11:59:53.773Z,15.26
2022-11-05T12:02:33.796Z,15.25
2022-11-05T12:05:18.023Z,15.24
2022-11-05T12:07:58.243Z,15.23
2022-11-05T12:11:03.248Z,15.23
2022-11-05T12:14:20.537Z,15.19
2022-11-05T12:17:14.604Z,15.15
2022-11-05T12:20:16.940Z,15.14
2022-11-05T12:23:45.389Z,15.12
2022-11-05T12:26:47.812Z,15.10
2022-11-05T12:29:59.004Z,15.09
2022-11-05T12:32:42.216Z,15.06
2022-11-05T12:35:57.583Z,15.03
2022-11-05T12:38:41.107Z,14.99
2022-11-05T12:41:26.116Z,15.00
2022-11-05T12:44:07.275Z,14.99
2022-11-05T12:47:08.692Z,15.03
2022-11-05T12:50:05.152Z,15.06
2022-11-05T12:53:15.201Z,15.09
2022-11-05T12:55:49.629Z,15.11
2022-11-05T12:58:35.874Z,15.10
2022-11-05T13:01:19.861Z,15.11
2022-11-05T13:03:57.888Z,15.10
2022-11-05T13:06:54.271Z,15.09
2022-11-05T13:09:34.728Z,15.06
2022-11-05T13:12:13.197Z,15.02
2022-11-05T13:14:52.483Z,14.98
2022-11-05T13:17:29.869Z,14.97
2022-11-05T13:20:17.508Z,14.94
2022-11-05T13:23:14.932Z,14.93
2022-11-05T13:25:53.659Z,14.89
2022-11-05T13:28:33.986Z,14.88
2022-11-05T13:31:06.875Z,14.86
2022-11-05T13:33:40.446Z,14.87
2022-11-05T13:36:39.271Z,14.87
2022-11-05T13:39:25.440Z,14.84
2022-11-05T13:42:16.161Z,14.85
2022-11-05T13:45:25.296Z,14.85
2022-11-05T13:48:05.807Z,14.83
2022-11-05T13:51:14.260Z,14.82
2022-11-05T13:53:51.938Z,14.83
2022-11-05T13:56:36.121Z,14.82
2022-11-05T13:59:33.889Z,14.81
2022-11-05T14:02:22.277Z,14.79
2022-11-05T14:05:01.230Z,14.79
2022-11-05T14:07:38.246Z,14.78
2022-11-05T14:10:41.876Z,14.76
2022-11-05T14:13:34.129Z,14.76
2022-11-05T14:16:17.486Z,14.76
2022-11-05T14:18:53.654Z,14.74
2022-11-05T14:21:28.198Z,14.74
2022-11-05T14:24:19.656Z,14.73
2022-11-05T14:27:03.053Z,14.71
2022-11-05T14:29:44.033Z,14.66
2022-11-05T14:32:21.229Z,14.67
2022-11-05T14:35:04.294Z,14.66
2022-11-05T14:37:39.636Z,14.66
2022-11-05T14:40:36.526Z,14.64
2022-11-05T14:43:14.683Z,14.61
2022-11-05T14:46:01.796Z,14.59
2022-11-05T14:48:59.429Z,14.56
2022-11-05T14:51:38.619Z,14.52
2022-11-05T14:54:30.544Z,14.54
2022-11-05T14:57:02.329Z,14.54
2022-11-05T14:59:35.087Z,14.52
2022-11-05T15:02:03.852Z,14.51
2022-11-05T15:04:37.880Z,14.48
2022-11-05T15:07:06.455Z,14.47
2022-11-05T15:09:46.941Z,14.46
2022-11-05T15:12:44.759Z,14.46
2022-11-05T15:15:21.425Z,14.45
2022-11-05T15:18:11.941Z,14.44
2022-11-05T15:20:47.026Z,14.44
2022-11-05T15:23:24.363Z,14.42
2022-11-05T15:26:05.392Z,14.41
2022-11-05T15:28:47.490Z,14.41
2022-11-05T15:31:16.264Z,14.40
2022-11-05T15:33:47.947Z,14.40
2022-11-05T15:36:29.419Z,14.39
2022-11-05T15:39:27.843Z,14.38
2022-11-05T15:41:47.986Z,14.37
2022-11-05T15:44:48.395Z,14.37
2022-11-05T15:47:36.866Z,14.35
2022-11-05T15:50:15.015Z,14.35
2022-11-05T15:52:55.455Z,14.31
2022-11-05T15:55:27.343Z,14.34
2022-11-05T15:58:07.191Z,14.34
2022-11-05T16:00:36.972Z,14.33
2022-11-05T16:03:19.180Z,14.33
2022-11-05T16:05:48.852Z,14.32
2022-11-05T16:08:21.159Z,14.32
2022-11-05T16:10:59.741Z,14.32
2022-11-05T16:13:33.305Z,14.31
2022-11-05T16:16:06.422Z,14.32
2022-11-05T16:18:40.743Z,14.30
2022-11-05T16:21:17.792Z,14.29
2022-11-05T16:23:56.878Z,14.28
2022-11-05T16:27:03.848Z,14.24
2022-11-05T16:29:50.860Z,14.23
2022-11-05T16:32:31.394Z,14.23
2022-11-05T16:35:04.905Z,14.22
2022-11-05T16:37:49.201Z,14.19
2022-11-05T16:40:24.268Z,14.18
2022-11-05T16:42:54.678Z,14.17
2022-11-05T16:45:25.612Z,14.17
2022-11-05T16:47:54.342Z,14.16
2022-11-05T16:50:30.740Z,14.14
2022-11-05T16:52:59.634Z,14.13
2022-11-05T16:55:30.169Z,14.11
2022-11-05T16:57:59.378Z,14.09
2022-11-05T17:00:28.228Z,14.08
2022-11-05T17:02:57.083Z,14.06
2022-11-05T17:05:30.165Z,14.05
2022-11-05T17:08:00.999Z,14.05
2022-11-05T17:10:30.264Z,14.04
2022-11-05T17:12:59.092Z,13.99
2022-11-05T17:15:37.074Z,13.98
2022-11-05T17:18:06.600Z,13.96
2022-11-05T17:20:41.123Z,13.94
2022-11-05T17:23:16.649Z,13.92
2022-11-05T17:25:49.350Z,13.91
2022-11-05T17:28:19.609Z,13.88
2022-11-05T17:30:52.376Z,13.85
2022-11-05T17:33:23.384Z,13.82
2022-11-05T17:35:53.141Z,13.78
2022-11-05T17:38:24.251Z,13.76
2022-11-05T17:40:53.809Z,13.73
2022-11-05T17:43:22.743Z,13.72
2022-11-05T17:45:53.088Z,13.69
2022-11-05T17:48:21.916Z,13.64
2022-11-05T17:50:51.360Z,13.63
2022-11-05T17:53:20.598Z,13.59
2022-11-05T17:55:49.525Z,13.56
2022-11-05T17:58:18.152Z,13.54
2022-11-05T18:00:48.486Z,13.51
2022-11-05T18:03:17.061Z,13.48
2022-11-05T18:05:45.992Z,13.41
2022-11-05T18:08:14.778Z,13.42
2022-11-05T18:10:43.707Z,13.40
2022-11-05T18:13:12.640Z,13.37
2022-11-05T18:15:41.600Z,13.35
2022-11-05T18:18:10.591Z,13.34
2022-11-05T18:20:39.643Z,13.31
2022-11-05T18:23:08.368Z,13.27
2022-11-05T18:25:37.115Z,13.26
2022-11-05T18:28:06.003Z,13.23
2022-11-05T18:30:34.942Z,13.21
2022-11-05T18:33:03.786Z,13.21
2022-11-05T18:35:32.609Z,13.20
2022-11-05T18:38:01.369Z,13.19
2022-11-05T18:40:30.046Z,13.17
2022-11-05T18:42:58.671Z,13.17
2022-11-05T18:45:29.955Z,13.15
2022-11-05T18:48:03.583Z,13.12
2022-11-05T18:50:32.201Z,13.08
2022-11-05T18:53:00.949Z,13.05
2022-11-05T18:55:29.884Z,13.03
2022-11-05T18:57:58.629Z,13.01
2022-11-05T19:00:28.166Z,12.99
2022-11-05T19:02:57.033Z,12.97
2022-11-05T19:05:29.978Z,12.95
2022-11-05T19:07:59.389Z,12.91
2022-11-05T19:10:28.546Z,12.89
2022-11-05T19:12:57.204Z,12.87
2022-11-05T19:15:25.979Z,12.86
2022-11-05T19:17:54.869Z,12.88
2022-11-05T19:20:23.657Z,12.88
2022-11-05T19:22:52.289Z,12.87
2022-11-05T19:25:20.974Z,12.87
2022-11-05T19:27:49.647Z,12.87
2022-11-05T19:30:18.343Z,12.88
2022-11-05T19:32:47.186Z,12.87
2022-11-05T19:35:16.386Z,12.85
2022-11-05T19:37:45.522Z,12.83
2022-11-05T19:40:14.338Z,12.83
2022-11-05T19:42:43.144Z,12.83
2022-11-05T19:45:38.175Z,12.85
2022-11-05T19:48:00.806Z,12.86
2022-11-05T19:50:29.490Z,12.88
2022-11-05T19:52:58.589Z,12.87
2022-11-05T19:55:28.058Z,12.86
2022-11-05T19:57:56.709Z,12.86
2022-11-05T20:00:25.466Z,12.86
2022-11-05T20:02:54.275Z,12.89
2022-11-05T20:05:23.243Z,12.89
2022-11-05T20:07:53.259Z,12.90
2022-11-05T20:10:22.405Z,12.90
2022-11-05T20:12:51.489Z,12.92
2022-11-05T20:15:20.340Z,12.93
2022-11-05T20:17:53.143Z,12.95
2022-11-05T20:20:22.323Z,12.98
2022-11-05T20:22:53.192Z,13.00
2022-11-05T20:25:21.924Z,13.01
2022-11-05T20:27:50.630Z,13.04
2022-11-05T20:30:20.306Z,13.05
2022-11-05T20:32:53.795Z,13.06
2022-11-05T20:35:24.121Z,13.06
2022-11-05T20:37:54.217Z,13.06
2022-11-05T20:40:23.421Z,13.06
2022-11-05T20:42:52.163Z,13.05
2022-11-05T20:45:20.953Z,13.05
2022-11-05T20:47:49.739Z,13.05
2022-11-05T20:50:18.679Z,13.05
2022-11-05T20:52:47.417Z,13.07
2022-11-05T20:55:16.308Z,13.08
2022-11-05T20:57:45.308Z,13.09
2022-11-05T21:00:15.180Z,13.10
2022-11-05T21:02:44.141Z,13.10
2022-11-05T21:05:13.099Z,13.10
2022-11-05T21:07:41.681Z,13.11
2022-11-05T21:10:10.411Z,13.12
2022-11-05T21:12:39.084Z,13.14
2022-11-05T21:15:09.623Z,13.14
2022-11-05T21:17:38.312Z,13.15
2022-11-05T21:20:07.930Z,13.15
2022-11-05T21:22:36.569Z,13.15
2022-11-05T21:25:05.715Z,13.15
2022-11-05T21:27:34.341Z,13.15
2022-11-05T21:30:04.262Z,13.14
2022-11-05T21:32:33.043Z,13.16
2022-11-05T21:35:01.976Z,13.17
2022-11-05T21:37:30.619Z,13.18
2022-11-05T21:39:59.409Z,13.18
2022-11-05T21:42:30.179Z,13.17
2022-11-05T21:45:00.613Z,13.17
2022-11-05T21:47:29.882Z,13.17
2022-11-05T21:49:58.600Z,13.12
2022-11-05T21:52:45.854Z,13.14
2022-11-05T21:55:34.225Z,13.08
2022-11-05T21:58:30.263Z,13.09
2022-11-05T22:01:01.339Z,13.12
2022-11-05T22:03:30.603Z,13.12
2022-11-05T22:05:59.217Z,13.12
2022-11-05T22:08:27.957Z,13.14
2022-11-05T22:10:56.693Z,13.14
2022-11-05T22:13:25.437Z,13.11
2022-11-05T22:15:57.390Z,13.06
2022-11-05T22:18:26.020Z,13.03
2022-11-05T22:20:54.618Z,13.02
2022-11-05T22:23:23.553Z,13.01
2022-11-05T22:26:00.582Z,12.97
2022-11-05T22:28:29.270Z,12.96
2022-11-05T22:30:58.011Z,12.94
2022-11-05T22:33:27.409Z,12.92
2022-11-05T22:35:56.198Z,12.89
2022-11-05T22:38:24.884Z,12.87
2022-11-05T22:40:53.878Z,12.86
2022-11-05T22:43:22.680Z,12.83
2022-11-05T22:45:51.452Z,12.80
2022-11-05T22:48:20.028Z,12.78
2022-11-05T22:50:48.392Z,12.77
2022-11-05T22:53:16.776Z,12.77
2022-11-05T22:55:45.165Z,12.75
2022-11-05T22:58:13.938Z,12.70
2022-11-05T23:00:42.520Z,12.65
2022-11-05T23:03:11.012Z,12.63
2022-11-05T23:05:39.498Z,12.60
2022-11-05T23:08:26.409Z,12.57
2022-11-05T23:11:13.423Z,12.53
2022-11-05T23:13:41.771Z,12.52
2022-11-05T23:16:28.524Z,12.50
2022-11-05T23:19:16.332Z,12.49
2022-11-05T23:22:03.462Z,12.49
2022-11-05T23:24:31.796Z,12.48
2022-11-05T23:27:00.099Z,12.49
2022-11-05T23:29:28.700Z,12.49
2022-11-05T23:32:15.937Z,12.46
2022-11-05T23:34:44.508Z,12.44
2022-11-05T23:37:31.403Z,12.45
2022-11-05T23:40:00.203Z,12.43
2022-11-05T23:42:47.323Z,12.42
2022-11-05T23:45:34.528Z,12.41
2022-11-05T23:48:18.363Z,12.41
2022-11-05T23:51:10.060Z,12.40
2022-11-05T23:53:41.539Z,12.39
2022-11-05T23:56:14.996Z,12.37
2022-11-05T23:58:43.356Z,12.34
